sensor_id;sensor_type;location;lat;lon;timestamp;pressure;altitude;pressure_sealevel;temperature;humidity
41044;BME280;51680;49.806;18.774;2023-08-08T00:01:38;97146.34;;;16.30;88.44
41044;BME280;51680;49.806;18.774;2023-08-08T00:04:43;97155.78;;;16.33;88.37
41044;BME280;51680;49.806;18.774;2023-08-08T00:07:44;97165.31;;;16.34;88.28
41044;BME280;51680;49.806;18.774;2023-08-08T00:10:46;97160.22;;;16.32;88.25
41044;BME280;51680;49.806;18.774;2023-08-08T00:13:49;97164.38;;;16.25;88.35
41044;BME280;51680;49.806;18.774;2023-08-08T00:16:51;97163.81;;;16.22;88.36
41044;BME280;51680;49.806;18.774;2023-08-08T00:19:52;97171.59;;;16.23;88.66
41044;BME280;51680;49.806;18.774;2023-08-08T00:22:54;97168.25;;;16.21;88.31
41044;BME280;51680;49.806;18.774;2023-08-08T00:25:56;97175.84;;;16.15;88.74
41044;BME280;51680;49.806;18.774;2023-08-08T00:28:59;97169.34;;;16.19;88.48
41044;BME280;51680;49.806;18.774;2023-08-08T00:32:01;97175.47;;;16.19;88.46
41044;BME280;51680;49.806;18.774;2023-08-08T00:35:03;97178.78;;;16.21;88.51
41044;BME280;51680;49.806;18.774;2023-08-08T00:38:06;97172.69;;;16.21;88.02
41044;BME280;51680;49.806;18.774;2023-08-08T00:41:08;97182.66;;;16.17;88.46
41044;BME280;51680;49.806;18.774;2023-08-08T00:44:11;97177.38;;;16.17;88.12
41044;BME280;51680;49.806;18.774;2023-08-08T00:47:13;97177.69;;;16.14;88.37
41044;BME280;51680;49.806;18.774;2023-08-08T00:50:15;97179.34;;;16.06;88.17
41044;BME280;51680;49.806;18.774;2023-08-08T00:53:18;97179.19;;;16.07;88.32
41044;BME280;51680;49.806;18.774;2023-08-08T00:56:23;97181.25;;;15.94;88.57
41044;BME280;51680;49.806;18.774;2023-08-08T00:59:27;97171.66;;;15.93;88.59
41044;BME280;51680;49.806;18.774;2023-08-08T01:02:28;97180.25;;;15.76;89.80
41044;BME280;51680;49.806;18.774;2023-08-08T01:05:35;97179.28;;;15.77;89.20
41044;BME280;51680;49.806;18.774;2023-08-08T01:08:44;97184.97;;;15.82;89.02
41044;BME280;51680;49.806;18.774;2023-08-08T01:11:47;97179.94;;;15.79;89.18
41044;BME280;51680;49.806;18.774;2023-08-08T01:14:51;97177.91;;;15.83;88.84
41044;BME280;51680;49.806;18.774;2023-08-08T01:17:54;97176.50;;;15.88;88.58
41044;BME280;51680;49.806;18.774;2023-08-08T01:20:57;97174.59;;;15.90;88.69
41044;BME280;51680;49.806;18.774;2023-08-08T01:27:09;97169.88;;;15.84;87.95
41044;BME280;51680;49.806;18.774;2023-08-08T01:30:12;97170.13;;;15.81;88.00
41044;BME280;51680;49.806;18.774;2023-08-08T01:33:14;97164.44;;;15.76;87.97
41044;BME280;51680;49.806;18.774;2023-08-08T01:36:20;97177.47;;;15.78;88.04
41044;BME280;51680;49.806;18.774;2023-08-08T01:39:26;97180.63;;;15.72;87.64
41044;BME280;51680;49.806;18.774;2023-08-08T01:42:30;97183.00;;;15.75;87.61
41044;BME280;51680;49.806;18.774;2023-08-08T01:45:31;97197.94;;;15.74;87.84
41044;BME280;51680;49.806;18.774;2023-08-08T01:48:33;97188.81;;;15.78;87.12
41044;BME280;51680;49.806;18.774;2023-08-08T01:51:35;97186.91;;;15.80;87.37
41044;BME280;51680;49.806;18.774;2023-08-08T01:54:37;97189.97;;;15.85;86.99
41044;BME280;51680;49.806;18.774;2023-08-08T01:57:40;97185.94;;;15.81;86.65
41044;BME280;51680;49.806;18.774;2023-08-08T02:00:41;97185.34;;;15.68;86.92
41044;BME280;51680;49.806;18.774;2023-08-08T02:03:45;97189.25;;;15.74;86.79
41044;BME280;51680;49.806;18.774;2023-08-08T02:06:47;97190.59;;;15.68;87.24
41044;BME280;51680;49.806;18.774;2023-08-08T02:09:48;97195.06;;;15.68;86.93
41044;BME280;51680;49.806;18.774;2023-08-08T02:12:53;97190.16;;;15.63;87.00
41044;BME280;51680;49.806;18.774;2023-08-08T02:15:55;97188.78;;;15.59;86.91
41044;BME280;51680;49.806;18.774;2023-08-08T02:18:57;97190.72;;;15.57;86.68
41044;BME280;51680;49.806;18.774;2023-08-08T02:21:59;97181.59;;;15.61;86.82
41044;BME280;51680;49.806;18.774;2023-08-08T02:25:00;97185.88;;;15.62;86.60
41044;BME280;51680;49.806;18.774;2023-08-08T02:28:04;97190.88;;;15.65;86.38
41044;BME280;51680;49.806;18.774;2023-08-08T02:31:06;97189.88;;;15.57;86.44
41044;BME280;51680;49.806;18.774;2023-08-08T02:34:08;97195.25;;;15.55;86.72
41044;BME280;51680;49.806;18.774;2023-08-08T02:37:09;97198.06;;;15.54;86.35
41044;BME280;51680;49.806;18.774;2023-08-08T02:40:11;97201.34;;;15.46;86.62
41044;BME280;51680;49.806;18.774;2023-08-08T02:43:14;97198.31;;;15.51;86.44
41044;BME280;51680;49.806;18.774;2023-08-08T02:46:17;97208.13;;;15.49;86.53
41044;BME280;51680;49.806;18.774;2023-08-08T02:49:19;97197.63;;;15.49;86.46
41044;BME280;51680;49.806;18.774;2023-08-08T02:52:22;97198.72;;;15.46;86.04
41044;BME280;51680;49.806;18.774;2023-08-08T02:55:23;97202.56;;;15.42;86.26
41044;BME280;51680;49.806;18.774;2023-08-08T02:58:27;97211.00;;;15.36;85.96
41044;BME280;51680;49.806;18.774;2023-08-08T03:01:29;97209.31;;;15.35;85.83
41044;BME280;51680;49.806;18.774;2023-08-08T03:04:32;97202.59;;;15.31;85.96
41044;BME280;51680;49.806;18.774;2023-08-08T03:07:34;97197.22;;;15.33;85.88
41044;BME280;51680;49.806;18.774;2023-08-08T03:10:36;97215.53;;;15.34;85.83
41044;BME280;51680;49.806;18.774;2023-08-08T03:13:39;97215.53;;;15.34;85.91
41044;BME280;51680;49.806;18.774;2023-08-08T03:16:42;97215.63;;;15.33;85.67
41044;BME280;51680;49.806;18.774;2023-08-08T03:19:45;97213.13;;;15.31;85.63
41044;BME280;51680;49.806;18.774;2023-08-08T03:22:48;97225.94;;;15.36;85.71
41044;BME280;51680;49.806;18.774;2023-08-08T03:25:50;97207.41;;;15.37;85.92
41044;BME280;51680;49.806;18.774;2023-08-08T03:28:53;97218.59;;;15.39;85.46
41044;BME280;51680;49.806;18.774;2023-08-08T03:32:02;97211.69;;;15.38;85.61
41044;BME280;51680;49.806;18.774;2023-08-08T03:35:06;97221.19;;;15.30;85.34
41044;BME280;51680;49.806;18.774;2023-08-08T03:38:08;97211.00;;;15.36;85.42
41044;BME280;51680;49.806;18.774;2023-08-08T03:41:10;97222.38;;;15.46;85.39
41044;BME280;51680;49.806;18.774;2023-08-08T03:44:14;97222.94;;;15.50;84.72
41044;BME280;51680;49.806;18.774;2023-08-08T03:47:16;97222.41;;;15.56;84.54
41044;BME280;51680;49.806;18.774;2023-08-08T03:50:18;97230.63;;;15.62;84.76
41044;BME280;51680;49.806;18.774;2023-08-08T03:53:20;97241.41;;;15.59;84.32
41044;BME280;51680;49.806;18.774;2023-08-08T03:56:22;97239.63;;;15.69;84.12
41044;BME280;51680;49.806;18.774;2023-08-08T03:59:25;97248.81;;;15.75;83.70
41044;BME280;51680;49.806;18.774;2023-08-08T04:02:26;97248.25;;;15.81;83.54
41044;BME280;51680;49.806;18.774;2023-08-08T04:05:29;97257.44;;;15.86;83.41
41044;BME280;51680;49.806;18.774;2023-08-08T04:08:31;97260.91;;;15.87;82.96
41044;BME280;51680;49.806;18.774;2023-08-08T04:11:33;97267.00;;;15.87;83.17
41044;BME280;51680;49.806;18.774;2023-08-08T04:14:37;97264.47;;;15.76;83.21
41044;BME280;51680;49.806;18.774;2023-08-08T04:17:39;97273.91;;;15.79;83.50
41044;BME280;51680;49.806;18.774;2023-08-08T04:20:41;97283.34;;;15.81;83.07
41044;BME280;51680;49.806;18.774;2023-08-08T04:23:42;97284.81;;;15.74;83.46
41044;BME280;51680;49.806;18.774;2023-08-08T04:26:44;97290.50;;;15.79;83.46
41044;BME280;51680;49.806;18.774;2023-08-08T04:29:47;97287.09;;;15.88;83.18
41044;BME280;51680;49.806;18.774;2023-08-08T04:32:49;97296.94;;;15.86;83.02
41044;BME280;51680;49.806;18.774;2023-08-08T04:35:50;97288.34;;;15.84;82.83
41044;BME280;51680;49.806;18.774;2023-08-08T04:38:52;97290.97;;;15.84;82.88
41044;BME280;51680;49.806;18.774;2023-08-08T04:41:54;97288.84;;;15.78;82.60
41044;BME280;51680;49.806;18.774;2023-08-08T04:44:57;97300.34;;;15.77;82.25
41044;BME280;51680;49.806;18.774;2023-08-08T04:47:59;97309.75;;;15.70;82.64
41044;BME280;51680;49.806;18.774;2023-08-08T04:51:00;97294.66;;;15.72;82.43
41044;BME280;51680;49.806;18.774;2023-08-08T04:54:02;97302.28;;;15.75;82.29
41044;BME280;51680;49.806;18.774;2023-08-08T04:57:05;97313.84;;;15.93;82.16
41044;BME280;51680;49.806;18.774;2023-08-08T05:00:09;97310.56;;;16.40;80.80
41044;BME280;51680;49.806;18.774;2023-08-08T05:03:10;97325.59;;;16.59;80.34
41044;BME280;51680;49.806;18.774;2023-08-08T05:06:12;97326.16;;;16.62;79.30
41044;BME280;51680;49.806;18.774;2023-08-08T05:09:14;97320.75;;;16.73;79.36
41044;BME280;51680;49.806;18.774;2023-08-08T05:12:16;97340.34;;;16.80;78.97
41044;BME280;51680;49.806;18.774;2023-08-08T05:15:19;97334.09;;;17.00;78.16
41044;BME280;51680;49.806;18.774;2023-08-08T05:18:21;97340.34;;;16.99;77.29
41044;BME280;51680;49.806;18.774;2023-08-08T05:21:22;97336.16;;;17.06;77.55
41044;BME280;51680;49.806;18.774;2023-08-08T05:24:24;97337.13;;;17.53;76.24
41044;BME280;51680;49.806;18.774;2023-08-08T05:27:27;97337.41;;;18.05;74.71
41044;BME280;51680;49.806;18.774;2023-08-08T05:30:30;97346.34;;;18.59;72.99
41044;BME280;51680;49.806;18.774;2023-08-08T05:33:32;97328.06;;;19.18;71.55
41044;BME280;51680;49.806;18.774;2023-08-08T05:36:33;97339.28;;;19.72;69.92
41044;BME280;51680;49.806;18.774;2023-08-08T05:39:35;97327.41;;;20.02;68.67
41044;BME280;51680;49.806;18.774;2023-08-08T05:42:37;97330.44;;;20.15;67.25
41044;BME280;51680;49.806;18.774;2023-08-08T05:45:40;97320.28;;;20.36;65.49
41044;BME280;51680;49.806;18.774;2023-08-08T05:48:42;97331.97;;;20.67;65.89
41044;BME280;51680;49.806;18.774;2023-08-08T05:51:43;97329.94;;;21.02;65.12
41044;BME280;51680;49.806;18.774;2023-08-08T05:54:45;97324.16;;;21.31;64.03
41044;BME280;51680;49.806;18.774;2023-08-08T05:57:47;97321.50;;;21.47;62.80
41044;BME280;51680;49.806;18.774;2023-08-08T06:00:50;97312.53;;;21.64;62.38
41044;BME280;51680;49.806;18.774;2023-08-08T06:03:52;97312.84;;;21.85;61.75
41044;BME280;51680;49.806;18.774;2023-08-08T06:06:53;97320.78;;;22.01;61.07
41044;BME280;51680;49.806;18.774;2023-08-08T06:09:55;97322.03;;;22.29;61.09
41044;BME280;51680;49.806;18.774;2023-08-08T06:12:57;97312.31;;;22.52;59.51
41044;BME280;51680;49.806;18.774;2023-08-08T06:16:00;97312.91;;;22.70;57.89
41044;BME280;51680;49.806;18.774;2023-08-08T06:19:06;97320.06;;;22.61;57.81
41044;BME280;51680;49.806;18.774;2023-08-08T06:22:09;97322.84;;;22.76;57.95
41044;BME280;51680;49.806;18.774;2023-08-08T06:25:10;97325.22;;;23.16;57.83
41044;BME280;51680;49.806;18.774;2023-08-08T06:28:12;97330.09;;;23.57;57.25
41044;BME280;51680;49.806;18.774;2023-08-08T06:31:15;97320.69;;;23.84;56.46
41044;BME280;51680;49.806;18.774;2023-08-08T06:34:17;97319.19;;;24.04;56.17
41044;BME280;51680;49.806;18.774;2023-08-08T06:37:19;97323.59;;;24.40;55.22
41044;BME280;51680;49.806;18.774;2023-08-08T06:40:20;97321.91;;;24.54;54.56
41044;BME280;51680;49.806;18.774;2023-08-08T06:43:22;97312.81;;;24.63;53.04
41044;BME280;51680;49.806;18.774;2023-08-08T06:46:25;97320.19;;;24.46;52.04
41044;BME280;51680;49.806;18.774;2023-08-08T06:49:27;97324.25;;;24.28;52.24
41044;BME280;51680;49.806;18.774;2023-08-08T06:52:29;97308.94;;;24.22;52.24
41044;BME280;51680;49.806;18.774;2023-08-08T06:55:30;97317.31;;;24.48;52.40
41044;BME280;51680;49.806;18.774;2023-08-08T06:58:32;97306.00;;;24.46;52.02
41044;BME280;51680;49.806;18.774;2023-08-08T07:01:35;97308.03;;;24.44;51.60
41044;BME280;51680;49.806;18.774;2023-08-08T07:04:37;97323.28;;;24.50;52.51
41044;BME280;51680;49.806;18.774;2023-08-08T07:07:38;97311.06;;;24.55;50.29
41044;BME280;51680;49.806;18.774;2023-08-08T07:10:40;97304.91;;;24.90;51.73
41044;BME280;51680;49.806;18.774;2023-08-08T07:13:42;97307.63;;;25.11;50.55
41044;BME280;51680;49.806;18.774;2023-08-08T07:16:45;97307.31;;;24.64;49.89
41044;BME280;51680;49.806;18.774;2023-08-08T07:19:48;97309.53;;;24.32;50.81
41044;BME280;51680;49.806;18.774;2023-08-08T07:22:51;97315.47;;;23.90;51.90
41044;BME280;51680;49.806;18.774;2023-08-08T07:25:52;97312.97;;;23.89;52.88
41044;BME280;51680;49.806;18.774;2023-08-08T07:28:54;97308.94;;;23.93;52.14
41044;BME280;51680;49.806;18.774;2023-08-08T07:31:58;97316.63;;;23.88;52.16
41044;BME280;51680;49.806;18.774;2023-08-08T07:35:04;97308.31;;;23.91;53.05
41044;BME280;51680;49.806;18.774;2023-08-08T07:38:08;97311.72;;;24.14;52.79
41044;BME280;51680;49.806;18.774;2023-08-08T07:41:10;97317.25;;;24.41;52.17
41044;BME280;51680;49.806;18.774;2023-08-08T07:44:12;97306.56;;;24.56;51.44
41044;BME280;51680;49.806;18.774;2023-08-08T07:47:15;97308.09;;;24.79;50.41
41044;BME280;51680;49.806;18.774;2023-08-08T07:50:16;97302.50;;;24.95;51.03
41044;BME280;51680;49.806;18.774;2023-08-08T07:53:18;97300.31;;;25.41;50.01
41044;BME280;51680;49.806;18.774;2023-08-08T07:56:20;97302.69;;;25.78;49.88
41044;BME280;51680;49.806;18.774;2023-08-08T07:59:22;97296.97;;;25.81;49.24
41044;BME280;51680;49.806;18.774;2023-08-08T08:02:25;97300.38;;;25.68;49.45
41044;BME280;51680;49.806;18.774;2023-08-08T08:05:27;97307.59;;;25.47;50.05
41044;BME280;51680;49.806;18.774;2023-08-08T08:08:29;97296.53;;;25.14;49.80
41044;BME280;51680;49.806;18.774;2023-08-08T08:11:30;97314.03;;;24.96;50.53
41044;BME280;51680;49.806;18.774;2023-08-08T08:14:32;97310.41;;;24.68;50.68
41044;BME280;51680;49.806;18.774;2023-08-08T08:17:35;97302.97;;;24.49;50.77
41044;BME280;51680;49.806;18.774;2023-08-08T08:20:37;97288.75;;;24.13;51.36
41044;BME280;51680;49.806;18.774;2023-08-08T08:23:39;97298.34;;;23.85;50.75
41044;BME280;51680;49.806;18.774;2023-08-08T08:26:41;97290.66;;;23.53;51.49
41044;BME280;51680;49.806;18.774;2023-08-08T08:29:43;97287.84;;;23.32;52.01
41044;BME280;51680;49.806;18.774;2023-08-08T08:32:46;97286.00;;;23.32;53.38
41044;BME280;51680;49.806;18.774;2023-08-08T08:35:47;97289.84;;;23.07;53.23
41044;BME280;51680;49.806;18.774;2023-08-08T08:38:49;97292.81;;;22.90;54.35
41044;BME280;51680;49.806;18.774;2023-08-08T08:42:00;97300.81;;;22.82;53.64
41044;BME280;51680;49.806;18.774;2023-08-08T08:45:06;97299.47;;;22.86;53.38
41044;BME280;51680;49.806;18.774;2023-08-08T08:48:13;97291.50;;;23.31;53.52
41044;BME280;51680;49.806;18.774;2023-08-08T08:51:17;97293.31;;;23.90;52.85
41044;BME280;51680;49.806;18.774;2023-08-08T08:54:19;97288.69;;;23.84;51.79
41044;BME280;51680;49.806;18.774;2023-08-08T08:57:21;97291.13;;;23.93;51.75
41044;BME280;51680;49.806;18.774;2023-08-08T09:00:24;97293.34;;;24.19;51.74
41044;BME280;51680;49.806;18.774;2023-08-08T09:03:27;97286.31;;;23.89;51.42
41044;BME280;51680;49.806;18.774;2023-08-08T09:06:29;97288.56;;;24.00;50.80
41044;BME280;51680;49.806;18.774;2023-08-08T09:09:32;97286.41;;;23.95;51.03
41044;BME280;51680;49.806;18.774;2023-08-08T09:12:33;97286.41;;;23.95;50.98
41044;BME280;51680;49.806;18.774;2023-08-08T09:15:36;97284.50;;;24.04;50.72
41044;BME280;51680;49.806;18.774;2023-08-08T09:18:39;97287.09;;;23.60;50.34
41044;BME280;51680;49.806;18.774;2023-08-08T09:21:43;97293.38;;;23.82;50.42
41044;BME280;51680;49.806;18.774;2023-08-08T09:24:45;97289.06;;;23.81;50.16
41044;BME280;51680;49.806;18.774;2023-08-08T09:27:47;97294.03;;;23.84;50.95
41044;BME280;51680;49.806;18.774;2023-08-08T09:30:49;97286.41;;;23.95;50.30
41044;BME280;51680;49.806;18.774;2023-08-08T09:33:53;97285.59;;;24.24;50.21
41044;BME280;51680;49.806;18.774;2023-08-08T09:36:55;97287.59;;;24.65;49.83
41044;BME280;51680;49.806;18.774;2023-08-08T09:39:57;97281.66;;;24.70;49.85
41044;BME280;51680;49.806;18.774;2023-08-08T09:42:59;97282.69;;;24.69;49.35
41044;BME280;51680;49.806;18.774;2023-08-08T09:46:01;97278.09;;;24.48;49.11
41044;BME280;51680;49.806;18.774;2023-08-08T09:49:05;97280.66;;;24.06;47.39
41044;BME280;51680;49.806;18.774;2023-08-08T09:52:07;97273.69;;;23.83;48.80
41044;BME280;51680;49.806;18.774;2023-08-08T09:55:10;97279.31;;;23.36;48.88
41044;BME280;51680;49.806;18.774;2023-08-08T09:58:12;97273.97;;;23.14;50.24
41044;BME280;51680;49.806;18.774;2023-08-08T10:01:15;97275.38;;;23.02;51.33
41044;BME280;51680;49.806;18.774;2023-08-08T10:04:18;97279.66;;;23.11;50.67
41044;BME280;51680;49.806;18.774;2023-08-08T10:07:20;97278.00;;;23.10;50.09
41044;BME280;51680;49.806;18.774;2023-08-08T10:10:22;97270.41;;;23.44;50.28
41044;BME280;51680;49.806;18.774;2023-08-08T10:13:26;97273.97;;;23.88;50.08
41044;BME280;51680;49.806;18.774;2023-08-08T10:16:28;97268.03;;;24.15;48.62
41044;BME280;51680;49.806;18.774;2023-08-08T10:19:34;97266.53;;;24.27;46.12
41044;BME280;51680;49.806;18.774;2023-08-08T10:22:37;97270.31;;;24.47;46.06
41044;BME280;51680;49.806;18.774;2023-08-08T10:25:43;97267.44;;;24.63;46.18
41044;BME280;51680;49.806;18.774;2023-08-08T10:28:52;97270.44;;;24.74;44.90
41044;BME280;51680;49.806;18.774;2023-08-08T10:31:58;97262.25;;;24.76;44.47
41044;BME280;51680;49.806;18.774;2023-08-08T10:35:03;97249.63;;;24.34;45.69
41044;BME280;51680;49.806;18.774;2023-08-08T10:38:08;97270.88;;;24.28;46.12
41044;BME280;51680;49.806;18.774;2023-08-08T10:41:11;97255.50;;;24.30;46.62
41044;BME280;51680;49.806;18.774;2023-08-08T10:44:13;97261.19;;;24.41;46.54
41044;BME280;51680;49.806;18.774;2023-08-08T10:47:16;97264.69;;;24.42;46.83
41044;BME280;51680;49.806;18.774;2023-08-08T10:50:23;97268.63;;;24.46;47.55
41044;BME280;51680;49.806;18.774;2023-08-08T10:53:25;97263.66;;;24.43;48.03
41044;BME280;51680;49.806;18.774;2023-08-08T10:56:30;97255.59;;;24.22;45.34
41044;BME280;51680;49.806;18.774;2023-08-08T10:59:36;97259.47;;;24.05;45.78
41044;BME280;51680;49.806;18.774;2023-08-08T11:02:39;97260.13;;;23.92;47.72
41044;BME280;51680;49.806;18.774;2023-08-08T11:05:46;97257.47;;;23.92;47.73
41044;BME280;51680;49.806;18.774;2023-08-08T11:08:49;97257.28;;;23.94;47.71
41044;BME280;51680;49.806;18.774;2023-08-08T11:11:51;97263.53;;;24.01;47.39
41044;BME280;51680;49.806;18.774;2023-08-08T11:14:53;97258.69;;;23.82;46.42
41044;BME280;51680;49.806;18.774;2023-08-08T11:17:56;97270.91;;;23.76;48.05
41044;BME280;51680;49.806;18.774;2023-08-08T11:20:59;97264.63;;;23.55;48.79
41044;BME280;51680;49.806;18.774;2023-08-08T11:24:01;97258.44;;;23.40;48.13
41044;BME280;51680;49.806;18.774;2023-08-08T11:27:03;97268.53;;;23.30;48.65
41044;BME280;51680;49.806;18.774;2023-08-08T11:30:06;97257.69;;;23.09;48.18
41044;BME280;51680;49.806;18.774;2023-08-08T11:33:08;97268.16;;;22.88;48.99
41044;BME280;51680;49.806;18.774;2023-08-08T11:36:13;97271.13;;;22.93;48.42
41044;BME280;51680;49.806;18.774;2023-08-08T11:39:15;97268.66;;;22.91;48.58
41044;BME280;51680;49.806;18.774;2023-08-08T11:42:17;97274.78;;;22.92;49.04
41044;BME280;51680;49.806;18.774;2023-08-08T11:45:20;97282.72;;;22.77;49.22
41044;BME280;51680;49.806;18.774;2023-08-08T11:48:22;97275.22;;;22.50;49.79
41044;BME280;51680;49.806;18.774;2023-08-08T11:51:25;97285.94;;;22.34;49.89
41044;BME280;51680;49.806;18.774;2023-08-08T11:54:26;97290.13;;;22.21;50.43
41044;BME280;51680;49.806;18.774;2023-08-08T11:57:28;97294.34;;;21.99;50.47
41044;BME280;51680;49.806;18.774;2023-08-08T12:00:30;97296.03;;;21.92;50.90
41044;BME280;51680;49.806;18.774;2023-08-08T12:03:32;97300.84;;;21.97;51.38
41044;BME280;51680;49.806;18.774;2023-08-08T12:06:36;97301.66;;;22.05;51.97
41044;BME280;51680;49.806;18.774;2023-08-08T12:09:39;97307.47;;;22.09;52.21
41044;BME280;51680;49.806;18.774;2023-08-08T12:12:42;97295.81;;;22.18;51.66
41044;BME280;51680;49.806;18.774;2023-08-08T12:15:44;97300.66;;;22.14;51.42
41044;BME280;51680;49.806;18.774;2023-08-08T12:18:48;97295.44;;;22.21;51.28
41044;BME280;51680;49.806;18.774;2023-08-08T12:21:51;97296.75;;;22.25;51.50
41044;BME280;51680;49.806;18.774;2023-08-08T12:24:53;97299.72;;;22.30;51.55
41044;BME280;51680;49.806;18.774;2023-08-08T12:27:55;97289.81;;;22.16;51.08
41044;BME280;51680;49.806;18.774;2023-08-08T12:30:57;97294.47;;;22.14;51.21
41044;BME280;51680;49.806;18.774;2023-08-08T12:33:59;97290.44;;;22.26;51.48
41044;BME280;51680;49.806;18.774;2023-08-08T12:37:02;97291.03;;;22.44;51.03
41044;BME280;51680;49.806;18.774;2023-08-08T12:40:05;97287.88;;;22.48;50.54
41044;BME280;51680;49.806;18.774;2023-08-08T12:43:07;97281.03;;;22.54;50.38
41044;BME280;51680;49.806;18.774;2023-08-08T12:46:08;97279.63;;;22.66;49.78
41044;BME280;51680;49.806;18.774;2023-08-08T12:49:10;97296.47;;;22.89;50.02
41044;BME280;51680;49.806;18.774;2023-08-08T12:52:13;97277.47;;;22.92;49.56
41044;BME280;51680;49.806;18.774;2023-08-08T12:55:15;97283.09;;;22.97;49.65
41044;BME280;51680;49.806;18.774;2023-08-08T12:58:18;97277.06;;;23.03;49.06
41044;BME280;51680;49.806;18.774;2023-08-08T13:01:20;97271.91;;;23.01;49.78
41044;BME280;51680;49.806;18.774;2023-08-08T13:04:21;97276.19;;;23.10;49.63
41044;BME280;51680;49.806;18.774;2023-08-08T13:07:24;97271.03;;;23.09;49.03
41044;BME280;51680;49.806;18.774;2023-08-08T13:10:27;97267.69;;;23.07;48.67
41044;BME280;51680;49.806;18.774;2023-08-08T13:13:29;97264.28;;;23.21;48.56
41044;BME280;51680;49.806;18.774;2023-08-08T13:16:31;97259.91;;;23.28;49.55
41044;BME280;51680;49.806;18.774;2023-08-08T13:19:32;97263.50;;;23.35;49.14
41044;BME280;51680;49.806;18.774;2023-08-08T13:22:36;97263.09;;;23.46;49.21
41044;BME280;51680;49.806;18.774;2023-08-08T13:25:38;97263.81;;;23.54;47.77
41044;BME280;51680;49.806;18.774;2023-08-08T13:28:41;97251.13;;;23.56;45.98
41044;BME280;51680;49.806;18.774;2023-08-08T13:31:46;97255.94;;;23.61;46.67
41044;BME280;51680;49.806;18.774;2023-08-08T13:34:48;97257.66;;;23.54;47.57
41044;BME280;51680;49.806;18.774;2023-08-08T13:37:52;97264.84;;;23.53;48.29
41044;BME280;51680;49.806;18.774;2023-08-08T13:40:55;97254.63;;;23.57;48.13
41044;BME280;51680;49.806;18.774;2023-08-08T13:43:56;97256.41;;;23.64;47.96
41044;BME280;51680;49.806;18.774;2023-08-08T13:46:58;97254.84;;;23.70;48.55
41044;BME280;51680;49.806;18.774;2023-08-08T13:50:00;97261.72;;;23.64;48.74
41044;BME280;51680;49.806;18.774;2023-08-08T13:53:03;97263.56;;;23.64;48.50
41044;BME280;51680;49.806;18.774;2023-08-08T13:56:05;97270.84;;;23.33;48.83
41044;BME280;51680;49.806;18.774;2023-08-08T13:59:07;97279.47;;;23.12;48.89
41044;BME280;51680;49.806;18.774;2023-08-08T14:02:08;97284.38;;;22.78;50.16
41044;BME280;51680;49.806;18.774;2023-08-08T14:05:10;97308.72;;;22.29;52.67
41044;BME280;51680;49.806;18.774;2023-08-08T14:08:13;97317.47;;;21.91;55.92
41044;BME280;51680;49.806;18.774;2023-08-08T14:11:15;97298.09;;;21.58;58.00
41044;BME280;51680;49.806;18.774;2023-08-08T14:14:17;97316.69;;;21.50;59.67
41044;BME280;51680;49.806;18.774;2023-08-08T14:17:18;97318.19;;;21.37;60.68
41044;BME280;51680;49.806;18.774;2023-08-08T14:20:20;97309.91;;;21.40;61.27
41044;BME280;51680;49.806;18.774;2023-08-08T14:23:23;97314.84;;;21.43;61.46
41044;BME280;51680;49.806;18.774;2023-08-08T14:26:25;97321.19;;;21.50;61.86
41044;BME280;51680;49.806;18.774;2023-08-08T14:29:27;97317.84;;;21.64;62.76
41044;BME280;51680;49.806;18.774;2023-08-08T14:32:28;97317.00;;;21.55;64.18
41044;BME280;51680;49.806;18.774;2023-08-08T14:35:30;97314.53;;;21.46;63.46
41044;BME280;51680;49.806;18.774;2023-08-08T14:38:36;97306.56;;;21.46;63.67
41044;BME280;51680;49.806;18.774;2023-08-08T14:41:38;97290.91;;;21.59;64.14
41044;BME280;51680;49.806;18.774;2023-08-08T14:44:40;97282.63;;;21.62;62.07
41044;BME280;51680;49.806;18.774;2023-08-08T14:47:41;97284.47;;;21.21;63.28
41044;BME280;51680;49.806;18.774;2023-08-08T14:50:43;97283.13;;;20.85;64.31
41044;BME280;51680;49.806;18.774;2023-08-08T14:53:46;97285.81;;;20.36;67.06
41044;BME280;51680;49.806;18.774;2023-08-08T14:56:48;97285.59;;;19.96;67.73
41044;BME280;51680;49.806;18.774;2023-08-08T14:59:50;97293.25;;;19.73;69.38
41044;BME280;51680;49.806;18.774;2023-08-08T15:02:52;97293.69;;;19.61;69.74
41044;BME280;51680;49.806;18.774;2023-08-08T15:05:54;97286.72;;;19.60;69.96
41044;BME280;51680;49.806;18.774;2023-08-08T15:08:57;97287.41;;;19.62;71.23
41044;BME280;51680;49.806;18.774;2023-08-08T15:11:59;97278.31;;;19.64;70.44
41044;BME280;51680;49.806;18.774;2023-08-08T15:15:01;97284.72;;;19.54;70.64
41044;BME280;51680;49.806;18.774;2023-08-08T15:18:04;97283.44;;;19.66;70.10
41044;BME280;51680;49.806;18.774;2023-08-08T15:21:06;97278.72;;;19.77;69.19
41044;BME280;51680;49.806;18.774;2023-08-08T15:24:09;97287.53;;;19.86;69.56
41044;BME280;51680;49.806;18.774;2023-08-08T15:27:11;97285.88;;;19.85;68.82
41044;BME280;51680;49.806;18.774;2023-08-08T15:30:13;97280.84;;;19.99;67.79
41044;BME280;51680;49.806;18.774;2023-08-08T15:33:14;97284.66;;;20.05;68.22
41044;BME280;51680;49.806;18.774;2023-08-08T15:36:16;97273.78;;;20.08;68.28
41044;BME280;51680;49.806;18.774;2023-08-08T15:39:19;97264.97;;;19.82;68.24
41044;BME280;51680;49.806;18.774;2023-08-08T15:42:23;97260.44;;;19.92;68.23
41044;BME280;51680;49.806;18.774;2023-08-08T15:45:25;97266.09;;;20.05;68.22
41044;BME280;51680;49.806;18.774;2023-08-08T15:48:27;97263.94;;;20.00;68.51
41044;BME280;51680;49.806;18.774;2023-08-08T15:51:29;97254.16;;;20.01;68.77
41044;BME280;51680;49.806;18.774;2023-08-08T15:54:32;97253.44;;;19.91;69.02
41044;BME280;51680;49.806;18.774;2023-08-08T15:57:33;97259.06;;;19.88;69.01